sensor_id;sensor_type;location;lat;lon;timestamp;pressure;altitude;pressure_sealevel;temperature;humidity
31225;BME280;17847;31.524;74.366;2022-10-16T00:02:31;98781.91;;;23.57;73.43
31225;BME280;17847;31.524;74.366;2022-10-16T00:05:32;98783.16;;;23.65;73.58
31225;BME280;17847;31.524;74.366;2022-10-16T00:08:10;98790.34;;;23.61;73.02
31225;BME280;17847;31.524;74.366;2022-10-16T00:11:15;98788.91;;;23.63;72.72
31225;BME280;17847;31.524;74.366;2022-10-16T00:13:55;98788.06;;;23.49;73.42
31225;BME280;17847;31.524;74.366;2022-10-16T00:16:51;98791.47;;;23.60;73.13
31225;BME280;17847;31.524;74.366;2022-10-16T00:19:34;98792.34;;;23.55;73.25
31225;BME280;17847;31.524;74.366;2022-10-16T00:22:22;98791.03;;;23.53;72.77
31225;BME280;17847;31.524;74.366;2022-10-16T00:25:05;98791.16;;;23.61;72.94
31225;BME280;17847;31.524;74.366;2022-10-16T00:27:53;98791.75;;;23.58;72.67
31225;BME280;17847;31.524;74.366;2022-10-16T00:30:48;98805.16;;;23.60;72.91
31225;BME280;17847;31.524;74.366;2022-10-16T00:33:31;98797.81;;;23.55;72.17
31225;BME280;17847;31.524;74.366;2022-10-16T00:36:22;98805.31;;;23.50;72.56
31225;BME280;17847;31.524;74.366;2022-10-16T00:39:05;98811.75;;;23.40;73.34
31225;BME280;17847;31.524;74.366;2022-10-16T00:41:53;98813.16;;;23.56;73.45
31225;BME280;17847;31.524;74.366;2022-10-16T00:44:52;98816.53;;;23.48;73.03
31225;BME280;17847;31.524;74.366;2022-10-16T00:47:49;98818.25;;;23.44;73.03
31225;BME280;17847;31.524;74.366;2022-10-16T00:50:34;98814.31;;;23.50;73.52
31225;BME280;17847;31.524;74.366;2022-10-16T00:53:25;98818.13;;;23.54;73.04
31225;BME280;17847;31.524;74.366;2022-10-16T00:56:09;98825.59;;;23.49;73.24
31225;BME280;17847;31.524;74.366;2022-10-16T00:58:58;98837.59;;;23.53;73.37
31225;BME280;17847;31.524;74.366;2022-10-16T01:01:41;98836.78;;;23.52;73.25
31225;BME280;17847;31.524;74.366;2022-10-16T01:04:36;98835.06;;;23.56;73.32
31225;BME280;17847;31.524;74.366;2022-10-16T01:10:38;98839.88;;;23.45;73.82
31225;BME280;17847;31.524;74.366;2022-10-16T01:13:29;98844.25;;;23.47;73.55
31225;BME280;17847;31.524;74.366;2022-10-16T01:16:39;98843.88;;;23.53;73.48
31225;BME280;17847;31.524;74.366;2022-10-16T01:19:50;98842.69;;;23.59;73.43
31225;BME280;17847;31.524;74.366;2022-10-16T01:26:25;98854.53;;;23.55;73.48
31225;BME280;17847;31.524;74.366;2022-10-16T01:32:38;98858.91;;;23.56;73.70
31225;BME280;17847;31.524;74.366;2022-10-16T01:35:27;98860.75;;;23.60;73.68
31225;BME280;17847;31.524;74.366;2022-10-16T01:38:30;98861.84;;;23.59;73.77
31225;BME280;17847;31.524;74.366;2022-10-16T01:41:24;98865.06;;;23.67;73.95
31225;BME280;17847;31.524;74.366;2022-10-16T01:44:20;98875.94;;;23.72;73.53
31225;BME280;17847;31.524;74.366;2022-10-16T01:47:06;98873.78;;;23.69;73.65
31225;BME280;17847;31.524;74.366;2022-10-16T01:49:58;98879.59;;;23.86;73.37
31225;BME280;17847;31.524;74.366;2022-10-16T01:52:45;98877.22;;;23.98;73.67
31225;BME280;17847;31.524;74.366;2022-10-16T01:55:38;98884.81;;;24.01;73.29
31225;BME280;17847;31.524;74.366;2022-10-16T01:58:26;98881.50;;;24.04;73.23
31225;BME280;17847;31.524;74.366;2022-10-16T02:01:18;98885.78;;;24.11;73.30
31225;BME280;17847;31.524;74.366;2022-10-16T02:04:04;98888.66;;;24.19;72.91
31225;BME280;17847;31.524;74.366;2022-10-16T02:07:02;98895.91;;;24.29;72.78
31225;BME280;17847;31.524;74.366;2022-10-16T02:09:45;98898.94;;;24.28;72.70
31225;BME280;17847;31.524;74.366;2022-10-16T02:12:44;98896.91;;;24.52;72.29
31225;BME280;17847;31.524;74.366;2022-10-16T02:15:27;98904.53;;;24.55;72.55
31225;BME280;17847;31.524;74.366;2022-10-16T02:18:16;98904.06;;;24.67;72.43
31225;BME280;17847;31.524;74.366;2022-10-16T02:21:25;98906.31;;;24.79;72.43
31225;BME280;17847;31.524;74.366;2022-10-16T02:32:58;98938.69;;;25.24;71.00
31225;BME280;17847;31.524;74.366;2022-10-16T02:35:50;98941.13;;;25.39;70.84
31225;BME280;17847;31.524;74.366;2022-10-16T02:38:27;98942.66;;;25.45;71.20
31225;BME280;17847;31.524;74.366;2022-10-16T02:41:23;98952.38;;;25.65;70.39
31225;BME280;17847;31.524;74.366;2022-10-16T02:44:00;98954.09;;;25.75;70.32
31225;BME280;17847;31.524;74.366;2022-10-16T02:46:55;98952.44;;;25.88;69.46
31225;BME280;17847;31.524;74.366;2022-10-16T02:49:38;98962.81;;;26.05;69.79
31225;BME280;17847;31.524;74.366;2022-10-16T02:52:26;98966.19;;;26.02;70.85
31225;BME280;17847;31.524;74.366;2022-10-16T02:55:09;98962.97;;;26.22;69.01
31225;BME280;17847;31.524;74.366;2022-10-16T02:57:57;98971.47;;;26.34;69.31
31225;BME280;17847;31.524;74.366;2022-10-16T03:00:40;98964.34;;;26.33;67.85
31225;BME280;17847;31.524;74.366;2022-10-16T03:03:35;98967.34;;;26.46;68.82
31225;BME280;17847;31.524;74.366;2022-10-16T03:06:11;98976.47;;;26.55;66.82
31225;BME280;17847;31.524;74.366;2022-10-16T03:09:06;98979.06;;;26.74;66.39
31225;BME280;17847;31.524;74.366;2022-10-16T03:11:43;98974.09;;;26.85;66.60
31225;BME280;17847;31.524;74.366;2022-10-16T03:14:38;98981.78;;;26.97;66.24
31225;BME280;17847;31.524;74.366;2022-10-16T03:17:20;98980.13;;;26.95;66.48
31225;BME280;17847;31.524;74.366;2022-10-16T03:20:08;98982.94;;;27.04;64.01
31225;BME280;17847;31.524;74.366;2022-10-16T03:22:51;98986.38;;;27.10;62.94
31225;BME280;17847;31.524;74.366;2022-10-16T03:25:40;98986.66;;;27.31;61.43
31225;BME280;17847;31.524;74.366;2022-10-16T03:28:28;98990.59;;;27.47;57.32
31225;BME280;17847;31.524;74.366;2022-10-16T03:31:11;98987.25;;;27.68;59.27
31225;BME280;17847;31.524;74.366;2022-10-16T03:33:59;98994.22;;;27.74;60.84
31225;BME280;17847;31.524;74.366;2022-10-16T03:36:42;99000.25;;;27.85;60.00
31225;BME280;17847;31.524;74.366;2022-10-16T03:39:30;99000.00;;;28.04;60.95
31225;BME280;17847;31.524;74.366;2022-10-16T03:42:13;99002.44;;;28.14;59.56
31225;BME280;17847;31.524;74.366;2022-10-16T03:45:10;99006.66;;;28.20;59.16
31225;BME280;17847;31.524;74.366;2022-10-16T03:47:53;99013.16;;;28.42;57.88
31225;BME280;17847;31.524;74.366;2022-10-16T03:50:41;99016.91;;;28.55;58.74
31225;BME280;17847;31.524;74.366;2022-10-16T03:53:24;99014.06;;;28.98;57.01
31225;BME280;17847;31.524;74.366;2022-10-16T03:56:13;99019.53;;;29.33;55.65
31225;BME280;17847;31.524;74.366;2022-10-16T03:58:56;99015.75;;;29.38;54.46
31225;BME280;17847;31.524;74.366;2022-10-16T04:01:44;99025.47;;;29.82;52.69
31225;BME280;17847;31.524;74.366;2022-10-16T04:04:27;99021.19;;;29.94;52.56
31225;BME280;17847;31.524;74.366;2022-10-16T04:07:22;99029.03;;;30.13;51.08
31225;BME280;17847;31.524;74.366;2022-10-16T04:10:05;99025.97;;;30.35;51.46
31225;BME280;17847;31.524;74.366;2022-10-16T04:13:01;99030.41;;;30.49;52.26
31225;BME280;17847;31.524;74.366;2022-10-16T04:15:45;99025.34;;;30.84;49.86
31225;BME280;17847;31.524;74.366;2022-10-16T04:18:33;99023.34;;;31.06;50.45
31225;BME280;17847;31.524;74.366;2022-10-16T04:21:17;99026.91;;;31.52;48.50
31225;BME280;17847;31.524;74.366;2022-10-16T04:24:06;99031.28;;;31.90;48.50
31225;BME280;17847;31.524;74.366;2022-10-16T04:26:49;99027.56;;;31.98;48.38
31225;BME280;17847;31.524;74.366;2022-10-16T04:29:38;99023.88;;;31.94;44.98
31225;BME280;17847;31.524;74.366;2022-10-16T04:32:21;99028.81;;;32.25;45.84
31225;BME280;17847;31.524;74.366;2022-10-16T04:35:09;99032.59;;;32.33;47.90
31225;BME280;17847;31.524;74.366;2022-10-16T04:37:52;99023.88;;;32.59;47.70
31225;BME280;17847;31.524;74.366;2022-10-16T04:40:42;99025.50;;;32.60;46.95
31225;BME280;17847;31.524;74.366;2022-10-16T04:43:25;99017.28;;;32.51;42.83
31225;BME280;17847;31.524;74.366;2022-10-16T04:46:13;99023.72;;;32.68;48.16
31225;BME280;17847;31.524;74.366;2022-10-16T04:48:56;99018.06;;;33.08;43.38
31225;BME280;17847;31.524;74.366;2022-10-16T04:51:51;99018.75;;;32.89;45.57
31225;BME280;17847;31.524;74.366;2022-10-16T04:54:34;99015.44;;;33.00;43.60
31225;BME280;17847;31.524;74.366;2022-10-16T04:57:29;99022.69;;;32.88;43.48
31225;BME280;17847;31.524;74.366;2022-10-16T05:00:12;99025.16;;;32.49;41.36
31225;BME280;17847;31.524;74.366;2022-10-16T05:03:01;99019.28;;;32.79;43.95
31225;BME280;17847;31.524;74.366;2022-10-16T05:05:48;99017.00;;;32.69;42.41
31225;BME280;17847;31.524;74.366;2022-10-16T05:08:37;99025.50;;;33.04;44.54
31225;BME280;17847;31.524;74.366;2022-10-16T05:11:20;99018.38;;;33.19;46.40
31225;BME280;17847;31.524;74.366;2022-10-16T05:14:08;99011.63;;;33.20;43.79
31225;BME280;17847;31.524;74.366;2022-10-16T05:16:51;99007.78;;;33.41;42.40
31225;BME280;17847;31.524;74.366;2022-10-16T05:19:46;99007.03;;;33.44;41.91
31225;BME280;17847;31.524;74.366;2022-10-16T05:22:29;99004.81;;;33.65;40.06
31225;BME280;17847;31.524;74.366;2022-10-16T05:25:24;99005.06;;;33.60;41.31
31225;BME280;17847;31.524;74.366;2022-10-16T05:28:12;99012.44;;;33.37;39.44
31225;BME280;17847;31.524;74.366;2022-10-16T05:30:55;99012.88;;;33.54;39.08
31225;BME280;17847;31.524;74.366;2022-10-16T05:33:44;99014.22;;;33.45;37.76
31225;BME280;17847;31.524;74.366;2022-10-16T05:36:26;99003.50;;;32.83;35.03
31225;BME280;17847;31.524;74.366;2022-10-16T05:39:15;99003.91;;;33.45;35.89
31225;BME280;17847;31.524;74.366;2022-10-16T05:41:58;99003.50;;;33.94;36.31
31225;BME280;17847;31.524;74.366;2022-10-16T05:44:46;98997.66;;;33.84;35.38
31225;BME280;17847;31.524;74.366;2022-10-16T05:47:29;98997.28;;;33.50;34.78
31225;BME280;17847;31.524;74.366;2022-10-16T05:50:17;98990.81;;;33.97;38.15
31225;BME280;17847;31.524;74.366;2022-10-16T05:53:00;98994.34;;;34.13;40.62
31225;BME280;17847;31.524;74.366;2022-10-16T05:55:52;98989.50;;;34.26;37.63
31225;BME280;17847;31.524;74.366;2022-10-16T05:58:36;98987.59;;;34.14;34.44
31225;BME280;17847;31.524;74.366;2022-10-16T06:01:28;98987.81;;;33.70;34.71
31225;BME280;17847;31.524;74.366;2022-10-16T06:04:11;98980.53;;;34.01;39.43
31225;BME280;17847;31.524;74.366;2022-10-16T06:07:06;98984.34;;;33.93;37.36
31225;BME280;17847;31.524;74.366;2022-10-16T06:09:49;98987.34;;;34.20;41.44
31225;BME280;17847;31.524;74.366;2022-10-16T06:12:38;98985.56;;;34.50;37.16
31225;BME280;17847;31.524;74.366;2022-10-16T06:15:20;98986.31;;;34.28;35.70
31225;BME280;17847;31.524;74.366;2022-10-16T06:18:10;98978.13;;;34.16;36.37
31225;BME280;17847;31.524;74.366;2022-10-16T06:20:52;98973.28;;;34.32;32.06
31225;BME280;17847;31.524;74.366;2022-10-16T06:23:48;98968.19;;;34.57;33.98
31225;BME280;17847;31.524;74.366;2022-10-16T06:26:30;98970.78;;;34.46;35.84
31225;BME280;17847;31.524;74.366;2022-10-16T06:29:19;98960.84;;;34.49;34.67
31225;BME280;17847;31.524;74.366;2022-10-16T06:32:14;98957.44;;;34.36;32.08
31225;BME280;17847;31.524;74.366;2022-10-16T06:34:57;98952.34;;;34.61;32.21
31225;BME280;17847;31.524;74.366;2022-10-16T06:37:45;98945.97;;;34.61;34.20
31225;BME280;17847;31.524;74.366;2022-10-16T06:40:28;98948.75;;;34.61;32.39
31225;BME280;17847;31.524;74.366;2022-10-16T06:43:16;98942.28;;;34.57;31.08
31225;BME280;17847;31.524;74.366;2022-10-16T06:46:00;98941.59;;;34.40;37.44
31225;BME280;17847;31.524;74.366;2022-10-16T06:48:58;98927.63;;;34.60;34.06
31225;BME280;17847;31.524;74.366;2022-10-16T06:51:41;98929.53;;;34.75;32.95
31225;BME280;17847;31.524;74.366;2022-10-16T06:54:30;98925.88;;;34.51;30.02
31225;BME280;17847;31.524;74.366;2022-10-16T06:57:15;98916.66;;;34.28;31.64
31225;BME280;17847;31.524;74.366;2022-10-16T07:00:10;98919.38;;;34.44;31.50
31225;BME280;17847;31.524;74.366;2022-10-16T07:02:47;98914.84;;;34.16;31.24
31225;BME280;17847;31.524;74.366;2022-10-16T07:05:43;98911.09;;;34.28;34.86
31225;BME280;17847;31.524;74.366;2022-10-16T07:08:25;98912.63;;;34.06;31.03
31225;BME280;17847;31.524;74.366;2022-10-16T07:11:19;98904.50;;;33.97;32.92
31225;BME280;17847;31.524;74.366;2022-10-16T07:14:03;98904.06;;;34.34;32.10
31225;BME280;17847;31.524;74.366;2022-10-16T07:16:52;98896.63;;;34.19;33.29
31225;BME280;17847;31.524;74.366;2022-10-16T07:19:35;98888.09;;;34.11;37.27
31225;BME280;17847;31.524;74.366;2022-10-16T07:22:23;98872.78;;;34.02;33.34
31225;BME280;17847;31.524;74.366;2022-10-16T07:25:06;98874.84;;;34.24;33.99
31225;BME280;17847;31.524;74.366;2022-10-16T07:27:55;98868.66;;;34.58;32.24
31225;BME280;17847;31.524;74.366;2022-10-16T07:30:51;98866.66;;;34.35;34.37
31225;BME280;17847;31.524;74.366;2022-10-16T07:33:27;98861.22;;;34.42;31.26
31225;BME280;17847;31.524;74.366;2022-10-16T07:36:22;98855.97;;;34.60;32.24
31225;BME280;17847;31.524;74.366;2022-10-16T07:38:58;98853.00;;;34.26;32.07
31225;BME280;17847;31.524;74.366;2022-10-16T07:41:53;98853.06;;;34.30;31.07
31225;BME280;17847;31.524;74.366;2022-10-16T07:44:35;98852.78;;;33.96;31.02
31225;BME280;17847;31.524;74.366;2022-10-16T07:47:24;98843.69;;;34.19;33.16
31225;BME280;17847;31.524;74.366;2022-10-16T07:50:01;98846.38;;;34.35;32.41
31225;BME280;17847;31.524;74.366;2022-10-16T07:52:57;98841.44;;;34.28;32.56
31225;BME280;17847;31.524;74.366;2022-10-16T07:55:40;98834.41;;;34.14;32.24
31225;BME280;17847;31.524;74.366;2022-10-16T07:58:29;98827.25;;;34.13;33.57
31225;BME280;17847;31.524;74.366;2022-10-16T08:01:14;98828.28;;;33.86;33.95
31225;BME280;17847;31.524;74.366;2022-10-16T08:04:02;98822.09;;;33.57;31.95
31225;BME280;17847;31.524;74.366;2022-10-16T08:06:45;98822.72;;;33.86;31.50
31225;BME280;17847;31.524;74.366;2022-10-16T08:09:42;98822.56;;;34.18;33.49
31225;BME280;17847;31.524;74.366;2022-10-16T08:12:18;98821.38;;;33.99;30.30
31225;BME280;17847;31.524;74.366;2022-10-16T08:15:13;98820.94;;;33.97;30.81
31225;BME280;17847;31.524;74.366;2022-10-16T08:22:14;98820.03;;;34.12;30.43
31225;BME280;17847;31.524;74.366;2022-10-16T08:25:33;98813.06;;;33.80;29.24
31225;BME280;17847;31.524;74.366;2022-10-16T08:28:10;98799.72;;;33.14;28.81
31225;BME280;17847;31.524;74.366;2022-10-16T08:31:11;98798.56;;;33.70;30.85
31225;BME280;17847;31.524;74.366;2022-10-16T08:33:47;98792.16;;;33.89;31.00
31225;BME280;17847;31.524;74.366;2022-10-16T08:36:42;98788.72;;;33.96;28.85
31225;BME280;17847;31.524;74.366;2022-10-16T08:39:18;98786.13;;;34.07;31.10
31225;BME280;17847;31.524;74.366;2022-10-16T08:48:53;98777.84;;;34.10;30.88
31225;BME280;17847;31.524;74.366;2022-10-16T08:51:36;98779.03;;;34.09;29.31
31225;BME280;17847;31.524;74.366;2022-10-16T08:54:36;98766.63;;;34.07;30.56
31225;BME280;17847;31.524;74.366;2022-10-16T08:57:20;98768.19;;;34.04;30.11
31225;BME280;17847;31.524;74.366;2022-10-16T09:00:17;98769.41;;;34.07;31.73
31225;BME280;17847;31.524;74.366;2022-10-16T09:03:03;98768.88;;;33.98;30.85
31225;BME280;17847;31.524;74.366;2022-10-16T09:12:37;98766.72;;;33.68;29.90
31225;BME280;17847;31.524;74.366;2022-10-16T09:18:41;98761.19;;;33.91;30.40
31225;BME280;17847;31.524;74.366;2022-10-16T09:21:30;98763.25;;;33.94;30.74
31225;BME280;17847;31.524;74.366;2022-10-16T09:24:25;98758.34;;;33.68;31.89
31225;BME280;17847;31.524;74.366;2022-10-16T09:27:14;98757.13;;;33.65;32.65
31225;BME280;17847;31.524;74.366;2022-10-16T09:30:15;98750.59;;;33.58;31.27
31225;BME280;17847;31.524;74.366;2022-10-16T09:32:59;98749.47;;;33.62;32.01
31225;BME280;17847;31.524;74.366;2022-10-16T09:35:51;98756.78;;;33.51;33.22
31225;BME280;17847;31.524;74.366;2022-10-16T09:38:36;98741.78;;;33.36;33.25
31225;BME280;17847;31.524;74.366;2022-10-16T09:41:25;98754.78;;;33.67;33.62
31225;BME280;17847;31.524;74.366;2022-10-16T09:44:28;98755.50;;;33.64;33.48
31225;BME280;17847;31.524;74.366;2022-10-16T09:47:21;98746.78;;;33.46;34.44
31225;BME280;17847;31.524;74.366;2022-10-16T09:50:21;98749.28;;;33.71;34.13
31225;BME280;17847;31.524;74.366;2022-10-16T09:53:15;98754.59;;;33.60;33.23
31225;BME280;17847;31.524;74.366;2022-10-16T09:56:00;98743.91;;;33.62;33.31
31225;BME280;17847;31.524;74.366;2022-10-16T09:59:01;98748.72;;;33.46;33.10
31225;BME280;17847;31.524;74.366;2022-10-16T10:01:52;98746.97;;;33.57;32.73
31225;BME280;17847;31.524;74.366;2022-10-16T10:04:52;98744.19;;;33.18;34.20
31225;BME280;17847;31.524;74.366;2022-10-16T10:07:43;98745.47;;;33.05;34.17
31225;BME280;17847;31.524;74.366;2022-10-16T10:10:42;98749.34;;;33.00;33.91
31225;BME280;17847;31.524;74.366;2022-10-16T10:13:25;98748.09;;;33.13;33.61
31225;BME280;17847;31.524;74.366;2022-10-16T10:16:23;98737.91;;;33.21;34.49
31225;BME280;17847;31.524;74.366;2022-10-16T10:19:01;98744.91;;;33.15;33.96
31225;BME280;17847;31.524;74.366;2022-10-16T10:21:56;98751.69;;;32.98;35.05
31225;BME280;17847;31.524;74.366;2022-10-16T10:31:06;98746.50;;;32.96;34.44
31225;BME280;17847;31.524;74.366;2022-10-16T10:34:04;98752.16;;;32.84;35.51
31225;BME280;17847;31.524;74.366;2022-10-16T10:46:56;98748.84;;;32.78;35.97
31225;BME280;17847;31.524;74.366;2022-10-16T11:05:43;98754.25;;;32.39;34.29
31225;BME280;17847;31.524;74.366;2022-10-16T11:08:48;98761.03;;;32.42;36.48
31225;BME280;17847;31.524;74.366;2022-10-16T11:15:39;98752.19;;;32.21;35.74
31225;BME280;17847;31.524;74.366;2022-10-16T11:18:50;98761.41;;;32.25;36.14
31225;BME280;17847;31.524;74.366;2022-10-16T11:21:43;98756.66;;;32.09;37.38
31225;BME280;17847;31.524;74.366;2022-10-16T11:24:51;98761.34;;;31.93;37.94
31225;BME280;17847;31.524;74.366;2022-10-16T11:33:50;98760.50;;;31.76;38.92
31225;BME280;17847;31.524;74.366;2022-10-16T11:39:30;98769.53;;;31.73;37.69
31225;BME280;17847;31.524;74.366;2022-10-16T11:42:37;98764.97;;;31.65;36.62
31225;BME280;17847;31.524;74.366;2022-10-16T11:45:43;98776.28;;;31.60;38.87
31225;BME280;17847;31.524;74.366;2022-10-16T11:49:10;98775.16;;;31.61;37.31
31225;BME280;17847;31.524;74.366;2022-10-16T11:55:14;98784.44;;;31.53;38.35
31225;BME280;17847;31.524;74.366;2022-10-16T11:58:31;98786.63;;;31.35;38.47
31225;BME280;17847;31.524;74.366;2022-10-16T12:01:42;98791.63;;;31.29;38.80
31225;BME280;17847;31.524;74.366;2022-10-16T12:05:18;98787.50;;;31.11;41.27
31225;BME280;17847;31.524;74.366;2022-10-16T12:08:15;98780.47;;;31.01;41.43
31225;BME280;17847;31.524;74.366;2022-10-16T12:11:30;98791.53;;;30.76;42.26
31225;BME280;17847;31.524;74.366;2022-10-16T12:23:19;98790.91;;;30.21;45.92
31225;BME280;17847;31.524;74.366;2022-10-16T12:26:02;98792.81;;;30.09;47.42
31225;BME280;17847;31.524;74.366;2022-10-16T12:28:53;98792.91;;;30.00;46.82
31225;BME280;17847;31.524;74.366;2022-10-16T12:31:38;98794.16;;;29.90;46.79
31225;BME280;17847;31.524;74.366;2022-10-16T12:34:45;98798.75;;;29.86;47.88
31225;BME280;17847;31.524;74.366;2022-10-16T12:37:33;98793.47;;;29.72;49.22
31225;BME280;17847;31.524;74.366;2022-10-16T12:40:32;98789.78;;;29.68;49.06
31225;BME280;17847;31.524;74.366;2022-10-16T12:43:26;98792.94;;;29.58;49.71
31225;BME280;17847;31.524;74.366;2022-10-16T12:52:36;98796.88;;;29.36;50.51
31225;BME280;17847;31.524;74.366;2022-10-16T12:55:21;98808.22;;;29.22;49.93
31225;BME280;17847;31.524;74.366;2022-10-16T12:58:27;98802.72;;;29.13;49.58
31225;BME280;17847;31.524;74.366;2022-10-16T13:04:29;98805.19;;;29.06;50.57
31225;BME280;17847;31.524;74.366;2022-10-16T13:28:33;98821.06;;;28.41;51.61
31225;BME280;17847;31.524;74.366;2022-10-16T13:31:24;98821.25;;;28.36;52.76
31225;BME280;17847;31.524;74.366;2022-10-16T13:34:15;98827.09;;;28.25;52.64
31225;BME280;17847;31.524;74.366;2022-10-16T13:37:19;98830.88;;;28.21;53.30
31225;BME280;17847;31.524;74.366;2022-10-16T13:40:22;98839.63;;;28.14;53.95
31225;BME280;17847;31.524;74.366;2022-10-16T13:43:11;98834.78;;;28.11;54.37
31225;BME280;17847;31.524;74.366;2022-10-16T13:46:00;98837.22;;;28.04;54.87
31225;BME280;17847;31.524;74.366;2022-10-16T13:49:00;98832.34;;;28.01;54.82
31225;BME280;17847;31.524;74.366;2022-10-16T13:52:03;98841.44;;;27.92;55.34
31225;BME280;17847;31.524;74.366;2022-10-16T13:58:37;98844.03;;;27.80;55.28
31225;BME280;17847;31.524;74.366;2022-10-16T14:01:24;98846.94;;;27.75;55.35
31225;BME280;17847;31.524;74.366;2022-10-16T14:04:15;98848.91;;;27.75;55.93
31225;BME280;17847;31.524;74.366;2022-10-16T14:06:51;98841.59;;;27.79;56.08
31225;BME280;17847;31.524;74.366;2022-10-16T14:09:49;98853.44;;;27.62;56.46
31225;BME280;17847;31.524;74.366;2022-10-16T14:12:32;98850.97;;;27.51;57.92
31225;BME280;17847;31.524;74.366;2022-10-16T14:15:21;98861.84;;;27.57;57.58
31225;BME280;17847;31.524;74.366;2022-10-16T14:18:04;98860.56;;;27.63;57.08
31225;BME280;17847;31.524;74.366;2022-10-16T14:20:53;98864.13;;;27.72;57.23
31225;BME280;17847;31.524;74.366;2022-10-16T14:23:43;98860.09;;;27.69;58.08
31225;BME280;17847;31.524;74.366;2022-10-16T14:26:44;98862.84;;;27.69;58.44
31225;BME280;17847;31.524;74.366;2022-10-16T14:29:26;98870.78;;;27.62;58.03
31225;BME280;17847;31.524;74.366;2022-10-16T14:32:24;98868.69;;;27.68;58.29
31225;BME280;17847;31.524;74.366;2022-10-16T14:35:00;98880.03;;;27.66;58.21
31225;BME280;17847;31.524;74.366;2022-10-16T14:37:56;98876.31;;;27.71;57.84
31225;BME280;17847;31.524;74.366;2022-10-16T14:40:47;98879.72;;;27.68;58.45
31225;BME280;17847;31.524;74.366;2022-10-16T14:43:40;98880.50;;;27.68;58.32
31225;BME280;17847;31.524;74.366;2022-10-16T14:46:20;98882.63;;;27.63;58.31
31225;BME280;17847;31.524;74.366;2022-10-16T14:49:20;98881.81;;;27.62;58.74
31225;BME280;17847;31.524;74.366;2022-10-16T14:52:09;98881.16;;;27.57;59.13
31225;BME280;17847;31.524;74.366;2022-10-16T14:54:58;98888.47;;;27.52;59.04
31225;BME280;17847;31.524;74.366;2022-10-16T14:57:42;98887.00;;;27.46;59.34
31225;BME280;17847;31.524;74.366;2022-10-16T15:00:30;98882.47;;;27.50;59.51
31225;BME280;17847;31.524;74.366;2022-10-16T15:03:13;98885.19;;;27.42;59.37
31225;BME280;17847;31.524;74.366;2022-10-16T15:06:01;98899.44;;;27.35;59.90
31225;BME280;17847;31.524;74.366;2022-10-16T15:08:44;98894.41;;;27.28;60.70
31225;BME280;17847;31.524;74.366;2022-10-16T15:11:39;98899.09;;;27.28;59.95
31225;BME280;17847;31.524;74.366;2022-10-16T15:14:16;98894.66;;;27.18;61.13
31225;BME280;17847;31.524;74.366;2022-10-16T15:17:11;98905.50;;;27.14;61.18
31225;BME280;17847;31.524;74.366;2022-10-16T15:19:52;98898.03;;;27.06;61.71
31225;BME280;17847;31.524;74.366;2022-10-16T15:22:48;98907.41;;;26.97;61.85
31225;BME280;17847;31.524;74.366;2022-10-16T15:25:44;98907.41;;;27.05;61.47
31225;BME280;17847;31.524;74.366;2022-10-16T15:28:27;98914.06;;;27.04;62.38
31225;BME280;17847;31.524;74.366;2022-10-16T15:31:23;98913.41;;;26.99;61.60
31225;BME280;17847;31.524;74.366;2022-10-16T15:33:59;98909.50;;;26.91;62.10
31225;BME280;17847;31.524;74.366;2022-10-16T15:36:54;98912.84;;;26.79;62.61
31225;BME280;17847;31.524;74.366;2022-10-16T15:39:36;98905.38;;;26.80;62.24
31225;BME280;17847;31.524;74.366;2022-10-16T15:42:24;98906.28;;;26.66;62.51
31225;BME280;17847;31.524;74.366;2022-10-16T15:45:01;98917.69;;;26.82;63.13
31225;BME280;17847;31.524;74.366;2022-10-16T15:47:56;98905.03;;;26.72;61.68
31225;BME280;17847;31.524;74.366;2022-10-16T15:50:39;98913.41;;;26.67;62.75
31225;BME280;17847;31.524;74.366;2022-10-16T15:53:28;98910.53;;;26.72;62.79
31225;BME280;17847;31.524;74.366;2022-10-16T15:56:05;98913.56;;;26.62;62.32
31225;BME280;17847;31.524;74.366;2022-10-16T15:59:01;98911.63;;;26.63;62.11
31225;BME280;17847;31.524;74.366;2022-10-16T16:01:37;98917.50;;;26.70;61.24
31225;BME280;17847;31.524;74.366;2022-10-16T16:04:33;98921.81;;;26.62;61.95
31225;BME280;17847;31.524;74.366;2022-10-16T16:07:18;98913.66;;;26.57;62.22
31225;BME280;17847;31.524;74.366;2022-10-16T16:10:09;98917.94;;;26.63;62.51
31225;BME280;17847;31.524;74.366;2022-10-16T16:12:49;98917.75;;;26.60;62.85
31225;BME280;17847;31.524;74.366;2022-10-16T16:15:45;98919.38;;;26.61;62.56
31225;BME280;17847;31.524;74.366;2022-10-16T16:18:21;98919.97;;;26.57;62.28
31225;BME280;17847;31.524;74.366;2022-10-16T16:21:16;98927.09;;;26.59;62.65
31225;BME280;17847;31.524;74.366;2022-10-16T16:23:52;98928.56;;;26.56;62.87
31225;BME280;17847;31.524;74.366;2022-10-16T16:26:47;98927.41;;;26.57;63.01
31225;BME280;17847;31.524;74.366;2022-10-16T16:29:23;98925.13;;;26.50;62.35
31225;BME280;17847;31.524;74.366;2022-10-16T16:32:18;98927.50;;;26.43;63.10
31225;BME280;17847;31.524;74.366;2022-10-16T16:34:54;98924.25;;;26.41;63.69
31225;BME280;17847;31.524;74.366;2022-10-16T16:37:50;98927.03;;;26.50;63.38
31225;BME280;17847;31.524;74.366;2022-10-16T16:40:33;98928.81;;;26.46;63.89
31225;BME280;17847;31.524;74.366;2022-10-16T16:43:25;98928.00;;;26.45;63.85
31225;BME280;17847;31.524;74.366;2022-10-16T16:46:08;98924.56;;;26.40;64.14
31225;BME280;17847;31.524;74.366;2022-10-16T16:48:58;98924.88;;;26.38;63.65
31225;BME280;17847;31.524;74.366;2022-10-16T16:51:41;98921.88;;;26.26;64.48
31225;BME280;17847;31.524;74.366;2022-10-16T16:54:30;98919.81;;;26.31;64.38
31225;BME280;17847;31.524;74.366;2022-10-16T16:57:13;98924.34;;;26.27;64.91
31225;BME280;17847;31.524;74.366;2022-10-16T17:00:02;98922.06;;;26.29;65.03